sensor_id;sensor_type;location;lat;lon;timestamp;pressure;altitude;pressure_sealevel;temperature;humidity
68793;BME280;55778;54.346;10.210;2022-12-08T00:01:48;100303.00;;;-0.61;100.00
68793;BME280;55778;54.346;10.210;2022-12-08T00:04:14;100305.44;;;-0.56;100.00
68793;BME280;55778;54.346;10.210;2022-12-08T00:06:41;100307.34;;;-0.58;100.00
68793;BME280;55778;54.346;10.210;2022-12-08T00:09:33;100297.56;;;-0.59;100.00
68793;BME280;55778;54.346;10.210;2022-12-08T00:12:06;100296.81;;;-0.61;100.00
68793;BME280;55778;54.346;10.210;2022-12-08T00:17:02;100286.38;;;-0.66;100.00
68793;BME280;55778;54.346;10.210;2022-12-08T00:19:28;100289.91;;;-0.65;100.00
68793;BME280;55778;54.346;10.210;2022-12-08T00:21:54;100289.81;;;-0.64;100.00
68793;BME280;55778;54.346;10.210;2022-12-08T00:24:22;100281.88;;;-0.65;100.00
68793;BME280;55778;54.346;10.210;2022-12-08T00:26:48;100277.47;;;-0.66;100.00
68793;BME280;55778;54.346;10.210;2022-12-08T00:29:14;100279.38;;;-0.68;100.00
68793;BME280;55778;54.346;10.210;2022-12-08T00:31:39;100281.94;;;-0.67;100.00
68793;BME280;55778;54.346;10.210;2022-12-08T00:34:05;100276.44;;;-0.64;100.00
68793;BME280;55778;54.346;10.210;2022-12-08T00:36:31;100277.38;;;-0.65;100.00
68793;BME280;55778;54.346;10.210;2022-12-08T00:38:56;100267.81;;;-0.69;100.00
68793;BME280;55778;54.346;10.210;2022-12-08T00:41:24;100268.66;;;-0.68;100.00
68793;BME280;55778;54.346;10.210;2022-12-08T00:44:10;100264.28;;;-0.69;100.00
68793;BME280;55778;54.346;10.210;2022-12-08T00:46:36;100255.47;;;-0.71;100.00
68793;BME280;55778;54.346;10.210;2022-12-08T00:49:03;100253.09;;;-0.76;100.00
68793;BME280;55778;54.346;10.210;2022-12-08T00:51:29;100248.13;;;-0.68;100.00
68793;BME280;55778;54.346;10.210;2022-12-08T00:53:56;100248.41;;;-0.72;100.00
68793;BME280;55778;54.346;10.210;2022-12-08T00:56:21;100234.28;;;-0.74;100.00
68793;BME280;55778;54.346;10.210;2022-12-08T00:58:47;100234.06;;;-0.71;100.00
68793;BME280;55778;54.346;10.210;2022-12-08T01:01:13;100234.06;;;-0.71;100.00
68793;BME280;55778;54.346;10.210;2022-12-08T01:03:40;100231.59;;;-0.74;100.00
68793;BME280;55778;54.346;10.210;2022-12-08T01:06:06;100220.19;;;-0.78;100.00
68793;BME280;55778;54.346;10.210;2022-12-08T01:08:32;100219.25;;;-0.77;100.00
68793;BME280;55778;54.346;10.210;2022-12-08T01:11:13;100215.91;;;-0.80;100.00
68793;BME280;55778;54.346;10.210;2022-12-08T01:13:39;100217.97;;;-0.85;100.00
68793;BME280;55778;54.346;10.210;2022-12-08T01:16:05;100220.72;;;-0.87;100.00
68793;BME280;55778;54.346;10.210;2022-12-08T01:18:31;100225.13;;;-0.86;100.00
68793;BME280;55778;54.346;10.210;2022-12-08T01:21:07;100221.78;;;-0.89;100.00
68793;BME280;55778;54.346;10.210;2022-12-08T01:23:33;100215.56;;;-0.90;100.00
68793;BME280;55778;54.346;10.210;2022-12-08T01:26:06;100215.66;;;-0.91;100.00
68793;BME280;55778;54.346;10.210;2022-12-08T01:28:32;100225.38;;;-0.90;100.00
68793;BME280;55778;54.346;10.210;2022-12-08T01:30:59;100211.75;;;-0.86;100.00
68793;BME280;55778;54.346;10.210;2022-12-08T01:33:25;100216.25;;;-0.86;100.00
68793;BME280;55778;54.346;10.210;2022-12-08T01:35:51;100226.06;;;-0.87;100.00
68793;BME280;55778;54.346;10.210;2022-12-08T01:38:17;100224.53;;;-0.91;100.00
68793;BME280;55778;54.346;10.210;2022-12-08T01:40:43;100222.63;;;-0.89;100.00
68793;BME280;55778;54.346;10.210;2022-12-08T01:43:17;100222.00;;;-0.78;100.00
68793;BME280;55778;54.346;10.210;2022-12-08T01:45:43;100217.88;;;-0.84;100.00
68793;BME280;55778;54.346;10.210;2022-12-08T01:48:21;100221.16;;;-0.79;100.00
68793;BME280;55778;54.346;10.210;2022-12-08T01:50:48;100227.19;;;-0.75;100.00
68793;BME280;55778;54.346;10.210;2022-12-08T01:53:28;100217.09;;;-0.70;100.00
68793;BME280;55778;54.346;10.210;2022-12-08T01:56:25;100215.00;;;-0.65;100.00
68793;BME280;55778;54.346;10.210;2022-12-08T01:58:53;100214.41;;;-0.70;100.00
68793;BME280;55778;54.346;10.210;2022-12-08T02:01:20;100203.53;;;-0.67;100.00
68793;BME280;55778;54.346;10.210;2022-12-08T02:03:56;100205.84;;;-0.61;100.00
68793;BME280;55778;54.346;10.210;2022-12-08T02:06:24;100195.34;;;-0.64;100.00
68793;BME280;55778;54.346;10.210;2022-12-08T02:08:50;100197.56;;;-0.57;100.00
68793;BME280;55778;54.346;10.210;2022-12-08T02:11:16;100198.22;;;-0.53;100.00
68793;BME280;55778;54.346;10.210;2022-12-08T02:13:43;100200.50;;;-0.61;100.00
68793;BME280;55778;54.346;10.210;2022-12-08T02:22:27;100193.41;;;-0.62;100.00
68793;BME280;55778;54.346;10.210;2022-12-08T02:25:03;100182.72;;;-0.62;100.00
68793;BME280;55778;54.346;10.210;2022-12-08T02:27:49;100186.16;;;-0.60;100.00
68793;BME280;55778;54.346;10.210;2022-12-08T02:33:26;100176.06;;;-0.55;100.00
68793;BME280;55778;54.346;10.210;2022-12-08T02:39:17;100175.72;;;-0.49;100.00
68793;BME280;55778;54.346;10.210;2022-12-08T02:42:18;100175.28;;;-0.57;100.00
68793;BME280;55778;54.346;10.210;2022-12-08T02:44:52;100163.97;;;-0.62;100.00
68793;BME280;55778;54.346;10.210;2022-12-08T02:47:21;100160.94;;;-0.56;100.00
68793;BME280;55778;54.346;10.210;2022-12-08T02:49:47;100166.47;;;-0.59;100.00
68793;BME280;55778;54.346;10.210;2022-12-08T02:54:47;100165.72;;;-0.61;100.00
68793;BME280;55778;54.346;10.210;2022-12-08T03:00:06;100178.22;;;-0.62;100.00
68793;BME280;55778;54.346;10.210;2022-12-08T03:05:45;100159.50;;;-0.62;100.00
68793;BME280;55778;54.346;10.210;2022-12-08T03:10:47;100157.00;;;-0.65;100.00
68793;BME280;55778;54.346;10.210;2022-12-08T03:13:20;100157.47;;;-0.72;100.00
68793;BME280;55778;54.346;10.210;2022-12-08T03:15:49;100146.75;;;-0.72;100.00
68793;BME280;55778;54.346;10.210;2022-12-08T03:18:16;100148.78;;;-0.76;100.00
68793;BME280;55778;54.346;10.210;2022-12-08T03:20:44;100146.94;;;-0.75;100.00
68793;BME280;55778;54.346;10.210;2022-12-08T03:23:13;100152.09;;;-0.72;100.00
68793;BME280;55778;54.346;10.210;2022-12-08T03:25:46;100153.25;;;-0.76;100.00
68793;BME280;55778;54.346;10.210;2022-12-08T03:28:13;100141.69;;;-0.77;100.00
68793;BME280;55778;54.346;10.210;2022-12-08T03:30:39;100142.47;;;-0.75;100.00
68793;BME280;55778;54.346;10.210;2022-12-08T03:33:13;100129.00;;;-0.73;100.00
68793;BME280;55778;54.346;10.210;2022-12-08T03:35:42;100135.78;;;-0.68;100.00
68793;BME280;55778;54.346;10.210;2022-12-08T03:38:13;100129.34;;;-0.79;100.00
68793;BME280;55778;54.346;10.210;2022-12-08T03:40:43;100134.09;;;-0.84;100.00
68793;BME280;55778;54.346;10.210;2022-12-08T03:43:08;100133.84;;;-0.80;100.00
68793;BME280;55778;54.346;10.210;2022-12-08T03:45:34;100134.19;;;-0.86;100.00
68793;BME280;55778;54.346;10.210;2022-12-08T03:47:59;100136.69;;;-0.83;100.00
68793;BME280;55778;54.346;10.210;2022-12-08T03:50:25;100133.91;;;-0.81;100.00
68793;BME280;55778;54.346;10.210;2022-12-08T03:52:51;100141.03;;;-0.80;100.00
68793;BME280;55778;54.346;10.210;2022-12-08T03:55:19;100127.47;;;-0.77;100.00
68793;BME280;55778;54.346;10.210;2022-12-08T03:57:45;100134.06;;;-0.69;100.00
68793;BME280;55778;54.346;10.210;2022-12-08T04:00:14;100135.00;;;-0.70;100.00
68793;BME280;55778;54.346;10.210;2022-12-08T04:02:39;100142.00;;;-0.67;100.00
68793;BME280;55778;54.346;10.210;2022-12-08T04:05:05;100142.84;;;-0.67;100.00
68793;BME280;55778;54.346;10.210;2022-12-08T04:07:30;100135.50;;;-0.63;100.00
68793;BME280;55778;54.346;10.210;2022-12-08T04:09:56;100131.41;;;-0.69;100.00
68793;BME280;55778;54.346;10.210;2022-12-08T04:12:21;100131.13;;;-0.64;100.00
68793;BME280;55778;54.346;10.210;2022-12-08T04:14:47;100128.72;;;-0.69;100.00
68793;BME280;55778;54.346;10.210;2022-12-08T04:17:12;100129.66;;;-0.70;100.00
68793;BME280;55778;54.346;10.210;2022-12-08T04:19:38;100128.81;;;-0.70;100.00
68793;BME280;55778;54.346;10.210;2022-12-08T04:22:05;100123.94;;;-0.64;100.00
68793;BME280;55778;54.346;10.210;2022-12-08T04:24:33;100126.06;;;-0.69;100.00
68793;BME280;55778;54.346;10.210;2022-12-08T04:26:58;100111.53;;;-0.65;100.00
68793;BME280;55778;54.346;10.210;2022-12-08T04:29:24;100115.91;;;-0.64;100.00
68793;BME280;55778;54.346;10.210;2022-12-08T04:31:49;100114.91;;;-0.61;100.00
68793;BME280;55778;54.346;10.210;2022-12-08T04:34:15;100106.31;;;-0.52;100.00
68793;BME280;55778;54.346;10.210;2022-12-08T04:36:40;100105.53;;;-0.54;100.00
68793;BME280;55778;54.346;10.210;2022-12-08T04:39:06;100111.22;;;-0.45;100.00
68793;BME280;55778;54.346;10.210;2022-12-08T04:41:31;100111.50;;;-0.35;100.00
68793;BME280;55778;54.346;10.210;2022-12-08T04:43:57;100108.13;;;-0.53;100.00
68793;BME280;55778;54.346;10.210;2022-12-08T04:46:22;100114.44;;;-0.54;100.00
68793;BME280;55778;54.346;10.210;2022-12-08T04:48:47;100107.06;;;-0.50;100.00
68793;BME280;55778;54.346;10.210;2022-12-08T04:51:17;100110.19;;;-0.58;100.00
68793;BME280;55778;54.346;10.210;2022-12-08T04:53:43;100098.75;;;-0.60;100.00
68793;BME280;55778;54.346;10.210;2022-12-08T04:56:13;100088.06;;;-0.60;100.00
68793;BME280;55778;54.346;10.210;2022-12-08T04:58:40;100079.94;;;-0.58;100.00
68793;BME280;55778;54.346;10.210;2022-12-08T05:01:06;100093.31;;;-0.58;100.00
68793;BME280;55778;54.346;10.210;2022-12-08T05:03:31;100104.47;;;-0.52;100.00
68793;BME280;55778;54.346;10.210;2022-12-08T05:05:58;100109.47;;;-0.46;100.00
68793;BME280;55778;54.346;10.210;2022-12-08T05:08:24;100117.59;;;-0.47;100.00
68793;BME280;55778;54.346;10.210;2022-12-08T05:10:50;100098.75;;;-0.46;100.00
68793;BME280;55778;54.346;10.210;2022-12-08T05:13:15;100104.03;;;-0.44;100.00
68793;BME280;55778;54.346;10.210;2022-12-08T05:15:40;100094.56;;;-0.50;100.00
68793;BME280;55778;54.346;10.210;2022-12-08T05:18:06;100095.34;;;-0.48;100.00
68793;BME280;55778;54.346;10.210;2022-12-08T05:20:32;100095.16;;;-0.45;100.00
68793;BME280;55778;54.346;10.210;2022-12-08T05:22:57;100106.69;;;-0.44;100.00
68793;BME280;55778;54.346;10.210;2022-12-08T05:25:23;100104.13;;;-0.46;100.00
68793;BME280;55778;54.346;10.210;2022-12-08T05:27:48;100100.09;;;-0.53;100.00
68793;BME280;55778;54.346;10.210;2022-12-08T05:30:14;100084.50;;;-0.60;100.00
68793;BME280;55778;54.346;10.210;2022-12-08T05:32:39;100092.81;;;-0.65;100.00
68793;BME280;55778;54.346;10.210;2022-12-08T05:35:05;100098.44;;;-0.69;100.00
68793;BME280;55778;54.346;10.210;2022-12-08T05:37:31;100101.78;;;-0.66;100.00
68793;BME280;55778;54.346;10.210;2022-12-08T05:39:56;100104.38;;;-0.64;100.00
68793;BME280;55778;54.346;10.210;2022-12-08T05:42:22;100105.31;;;-0.65;100.00
68793;BME280;55778;54.346;10.210;2022-12-08T05:44:47;100101.09;;;-0.69;100.00
68793;BME280;55778;54.346;10.210;2022-12-08T05:47:13;100105.41;;;-0.67;100.00
68793;BME280;55778;54.346;10.210;2022-12-08T05:49:38;100102.19;;;-0.58;100.00
68793;BME280;55778;54.346;10.210;2022-12-08T05:52:03;100096.44;;;-0.52;100.00
68793;BME280;55778;54.346;10.210;2022-12-08T05:54:29;100102.78;;;-0.53;100.00
68793;BME280;55778;54.346;10.210;2022-12-08T05:56:54;100104.47;;;-0.52;100.00
68793;BME280;55778;54.346;10.210;2022-12-08T05:59:20;100102.59;;;-0.50;100.00
68793;BME280;55778;54.346;10.210;2022-12-08T06:01:48;100094.94;;;-0.56;100.00
68793;BME280;55778;54.346;10.210;2022-12-08T06:04:13;100095.19;;;-0.60;100.00
68793;BME280;55778;54.346;10.210;2022-12-08T06:06:39;100098.16;;;-0.65;100.00
68793;BME280;55778;54.346;10.210;2022-12-08T06:09:05;100093.88;;;-0.67;100.00
68793;BME280;55778;54.346;10.210;2022-12-08T06:11:31;100091.09;;;-0.66;100.00
68793;BME280;55778;54.346;10.210;2022-12-08T06:13:57;100095.75;;;-0.69;100.00
68793;BME280;55778;54.346;10.210;2022-12-08T06:16:24;100086.94;;;-0.71;100.00
68793;BME280;55778;54.346;10.210;2022-12-08T06:18:51;100097.09;;;-0.62;100.00
68793;BME280;55778;54.346;10.210;2022-12-08T06:21:17;100096.63;;;-0.69;100.00
68793;BME280;55778;54.346;10.210;2022-12-08T06:23:46;100100.22;;;-0.70;100.00
68793;BME280;55778;54.346;10.210;2022-12-08T06:26:13;100099.22;;;-0.67;100.00
68793;BME280;55778;54.346;10.210;2022-12-08T06:28:40;100095.03;;;-0.57;100.00
68793;BME280;55778;54.346;10.210;2022-12-08T06:31:32;100105.91;;;-0.60;100.00
68793;BME280;55778;54.346;10.210;2022-12-08T06:33:57;100095.06;;;-0.43;100.00
68793;BME280;55778;54.346;10.210;2022-12-08T06:36:25;100094.94;;;-0.56;100.00
68793;BME280;55778;54.346;10.210;2022-12-08T06:38:51;100099.50;;;-0.58;100.00
68793;BME280;55778;54.346;10.210;2022-12-08T06:41:17;100112.41;;;-0.64;100.00
68793;BME280;55778;54.346;10.210;2022-12-08T06:43:43;100109.22;;;-0.71;100.00
68793;BME280;55778;54.346;10.210;2022-12-08T06:46:13;100117.16;;;-0.69;100.00
68793;BME280;55778;54.346;10.210;2022-12-08T06:48:39;100114.38;;;-0.68;100.00
68793;BME280;55778;54.346;10.210;2022-12-08T06:51:13;100117.16;;;-0.69;100.00
68793;BME280;55778;54.346;10.210;2022-12-08T06:53:39;100117.94;;;-0.67;100.00
68793;BME280;55778;54.346;10.210;2022-12-08T06:56:06;100120.69;;;-0.69;100.00
68793;BME280;55778;54.346;10.210;2022-12-08T06:58:32;100128.81;;;-0.70;100.00
68793;BME280;55778;54.346;10.210;2022-12-08T07:01:06;100122.59;;;-0.71;100.00
68793;BME280;55778;54.346;10.210;2022-12-08T07:03:32;100129.00;;;-0.73;100.00
68793;BME280;55778;54.346;10.210;2022-12-08T07:05:58;100132.63;;;-0.74;100.00
68793;BME280;55778;54.346;10.210;2022-12-08T07:08:23;100134.78;;;-0.51;100.00
68793;BME280;55778;54.346;10.210;2022-12-08T07:10:49;100130.94;;;-0.61;100.00
68793;BME280;55778;54.346;10.210;2022-12-08T07:13:14;100127.59;;;-0.65;100.00
68793;BME280;55778;54.346;10.210;2022-12-08T07:15:40;100134.06;;;-0.39;100.00
68793;BME280;55778;54.346;10.210;2022-12-08T07:18:05;100134.59;;;-0.48;100.00
68793;BME280;55778;54.346;10.210;2022-12-08T07:20:31;100139.94;;;-0.48;100.00
68793;BME280;55778;54.346;10.210;2022-12-08T07:22:56;100138.69;;;-0.57;100.00
68793;BME280;55778;54.346;10.210;2022-12-08T07:25:21;100129.34;;;-0.36;100.00
68793;BME280;55778;54.346;10.210;2022-12-08T07:27:47;100126.66;;;-0.50;100.00
68793;BME280;55778;54.346;10.210;2022-12-08T07:30:15;100137.31;;;-0.64;100.00
68793;BME280;55778;54.346;10.210;2022-12-08T07:32:40;100145.13;;;-0.75;100.00
68793;BME280;55778;54.346;10.210;2022-12-08T07:35:06;100134.97;;;-0.84;100.00
68793;BME280;55778;54.346;10.210;2022-12-08T07:37:33;100142.75;;;-0.65;100.00
68793;BME280;55778;54.346;10.210;2022-12-08T07:39:59;100147.28;;;-0.66;100.00
68793;BME280;55778;54.346;10.210;2022-12-08T07:42:24;100146.84;;;-0.44;100.00
68793;BME280;55778;54.346;10.210;2022-12-08T07:44:49;100136.28;;;-0.61;100.00
68793;BME280;55778;54.346;10.210;2022-12-08T07:47:15;100149.97;;;-0.81;100.00
68793;BME280;55778;54.346;10.210;2022-12-08T07:49:41;100144.06;;;-0.86;100.00
68793;BME280;55778;54.346;10.210;2022-12-08T07:52:06;100158.78;;;-0.79;100.00
68793;BME280;55778;54.346;10.210;2022-12-08T07:54:31;100150.84;;;-0.81;100.00
68793;BME280;55778;54.346;10.210;2022-12-08T07:56:57;100155.41;;;-0.83;100.00
68793;BME280;55778;54.346;10.210;2022-12-08T07:59:23;100152.06;;;-0.86;100.00
68793;BME280;55778;54.346;10.210;2022-12-08T08:01:48;100159.31;;;-0.88;100.00
68793;BME280;55778;54.346;10.210;2022-12-08T08:04:15;100158.97;;;-0.82;100.00
68793;BME280;55778;54.346;10.210;2022-12-08T08:06:41;100166.72;;;-0.78;100.00
68793;BME280;55778;54.346;10.210;2022-12-08T08:09:09;100171.78;;;-0.73;100.00
68793;BME280;55778;54.346;10.210;2022-12-08T08:11:35;100174.38;;;-0.72;100.00
68793;BME280;55778;54.346;10.210;2022-12-08T08:14:01;100175.13;;;-0.70;100.00
68793;BME280;55778;54.346;10.210;2022-12-08T08:16:26;100172.44;;;-0.70;100.00
68793;BME280;55778;54.346;10.210;2022-12-08T08:18:52;100179.47;;;-0.67;100.00
68793;BME280;55778;54.346;10.210;2022-12-08T08:21:19;100178.50;;;-0.66;100.00
68793;BME280;55778;54.346;10.210;2022-12-08T08:23:45;100179.84;;;-0.59;100.00
68793;BME280;55778;54.346;10.210;2022-12-08T08:26:10;100173.47;;;-0.57;100.00
68793;BME280;55778;54.346;10.210;2022-12-08T08:28:36;100174.22;;;-0.55;100.00
68793;BME280;55778;54.346;10.210;2022-12-08T08:31:02;100171.66;;;-0.56;100.00
68793;BME280;55778;54.346;10.210;2022-12-08T08:33:27;100172.34;;;-0.53;100.00
68793;BME280;55778;54.346;10.210;2022-12-08T08:35:54;100169.47;;;-0.50;100.00
68793;BME280;55778;54.346;10.210;2022-12-08T08:38:19;100168.06;;;-0.41;100.00
68793;BME280;55778;54.346;10.210;2022-12-08T08:40:45;100169.81;;;-0.40;100.00
68793;BME280;55778;54.346;10.210;2022-12-08T08:43:10;100176.19;;;-0.43;100.00
68793;BME280;55778;54.346;10.210;2022-12-08T08:46:03;100176.00;;;-0.40;100.00
68793;BME280;55778;54.346;10.210;2022-12-08T08:48:29;100189.56;;;-0.43;100.00
68793;BME280;55778;54.346;10.210;2022-12-08T08:50:56;100183.38;;;-0.43;100.00
68793;BME280;55778;54.346;10.210;2022-12-08T08:53:22;100191.66;;;-0.48;100.00
68793;BME280;55778;54.346;10.210;2022-12-08T08:55:48;100183.03;;;-0.53;100.00
68793;BME280;55778;54.346;10.210;2022-12-08T08:58:14;100187.78;;;-0.58;100.00
68793;BME280;55778;54.346;10.210;2022-12-08T09:00:40;100184.53;;;-0.63;100.00
68793;BME280;55778;54.346;10.210;2022-12-08T09:03:08;100184.72;;;-0.66;100.00
68793;BME280;55778;54.346;10.210;2022-12-08T09:05:33;100187.66;;;-0.70;100.00
68793;BME280;55778;54.346;10.210;2022-12-08T09:07:59;100204.66;;;-0.71;100.00
68793;BME280;55778;54.346;10.210;2022-12-08T09:10:24;100198.63;;;-0.75;100.00
68793;BME280;55778;54.346;10.210;2022-12-08T09:12:50;100198.03;;;-0.80;100.00
68793;BME280;55778;54.346;10.210;2022-12-08T09:15:15;100208.50;;;-0.91;100.00
68793;BME280;55778;54.346;10.210;2022-12-08T09:17:41;100204.34;;;-0.96;100.00
68793;BME280;55778;54.346;10.210;2022-12-08T09:20:07;100207.19;;;-0.99;100.00
68793;BME280;55778;54.346;10.210;2022-12-08T09:22:33;100205.91;;;-1.08;100.00
68793;BME280;55778;54.346;10.210;2022-12-08T09:24:58;100202.56;;;-1.11;100.00
68793;BME280;55778;54.346;10.210;2022-12-08T09:27:24;100206.34;;;-1.15;100.00
68793;BME280;55778;54.346;10.210;2022-12-08T09:29:49;100203.00;;;-1.19;100.00
68793;BME280;55778;54.346;10.210;2022-12-08T09:32:14;100214.88;;;-1.24;100.00
68793;BME280;55778;54.346;10.210;2022-12-08T09:34:40;100211.00;;;-1.19;100.00
68793;BME280;55778;54.346;10.210;2022-12-08T09:37:05;100203.06;;;-1.20;100.00
68793;BME280;55778;54.346;10.210;2022-12-08T09:39:31;100207.38;;;-1.18;100.00
68793;BME280;55778;54.346;10.210;2022-12-08T09:41:59;100208.56;;;-1.08;100.00
68793;BME280;55778;54.346;10.210;2022-12-08T09:44:39;100223.75;;;-1.08;100.00
68793;BME280;55778;54.346;10.210;2022-12-08T09:47:25;100224.53;;;-1.06;100.00
68793;BME280;55778;54.346;10.210;2022-12-08T09:52:38;100208.00;;;-0.52;100.00
68793;BME280;55778;54.346;10.210;2022-12-08T09:55:14;100202.09;;;-0.14;100.00
68793;BME280;55778;54.346;10.210;2022-12-08T09:57:41;100197.81;;;0.26;100.00
68793;BME280;55778;54.346;10.210;2022-12-08T10:00:10;100187.56;;;0.47;100.00
68793;BME280;55778;54.346;10.210;2022-12-08T10:02:36;100192.25;;;0.71;100.00
68793;BME280;55778;54.346;10.210;2022-12-08T10:05:02;100182.59;;;0.95;100.00
68793;BME280;55778;54.346;10.210;2022-12-08T10:16:23;100184.66;;;1.57;99.49
68793;BME280;55778;54.346;10.210;2022-12-08T10:18:59;100186.00;;;1.38;99.49
68793;BME280;55778;54.346;10.210;2022-12-08T10:21:27;100189.94;;;1.32;100.00
68793;BME280;55778;54.346;10.210;2022-12-08T10:23:58;100184.88;;;1.28;99.82
68793;BME280;55778;54.346;10.210;2022-12-08T10:26:28;100188.13;;;1.33;100.00
68793;BME280;55778;54.346;10.210;2022-12-08T10:28:57;100184.84;;;1.54;100.00
68793;BME280;55778;54.346;10.210;2022-12-08T10:31:25;100179.91;;;1.48;100.00
68793;BME280;55778;54.346;10.210;2022-12-08T10:33:56;100193.53;;;1.84;99.78
68793;BME280;55778;54.346;10.210;2022-12-08T10:36:43;100183.91;;;2.20;95.99
68793;BME280;55778;54.346;10.210;2022-12-08T10:39:40;100187.44;;;2.20;95.21
68793;BME280;55778;54.346;10.210;2022-12-08T10:47:36;100185.91;;;2.41;94.80
68793;BME280;55778;54.346;10.210;2022-12-08T10:52:37;100186.47;;;2.46;96.69
68793;BME280;55778;54.346;10.210;2022-12-08T10:55:11;100177.06;;;2.64;96.85
68793;BME280;55778;54.346;10.210;2022-12-08T10:57:37;100180.97;;;2.96;91.70
68793;BME280;55778;54.346;10.210;2022-12-08T11:00:03;100181.09;;;2.82;92.19
68793;BME280;55778;54.346;10.210;2022-12-08T11:02:29;100181.81;;;2.48;94.16
68793;BME280;55778;54.346;10.210;2022-12-08T11:04:58;100189.56;;;2.28;94.89
68793;BME280;55778;54.346;10.210;2022-12-08T11:07:24;100183.13;;;2.43;96.45
68793;BME280;55778;54.346;10.210;2022-12-08T11:09:54;100196.69;;;2.54;97.10
68793;BME280;55778;54.346;10.210;2022-12-08T11:12:25;100190.94;;;2.58;96.97
68793;BME280;55778;54.346;10.210;2022-12-08T11:14:58;100185.00;;;2.78;95.04
68793;BME280;55778;54.346;10.210;2022-12-08T11:17:35;100186.84;;;3.14;96.19
68793;BME280;55778;54.346;10.210;2022-12-08T11:22:37;100179.06;;;3.45;90.84
68793;BME280;55778;54.346;10.210;2022-12-08T11:27:38;100175.63;;;3.43;94.07
68793;BME280;55778;54.346;10.210;2022-12-08T11:32:43;100176.94;;;3.14;91.30
68793;BME280;55778;54.346;10.210;2022-12-08T11:35:20;100186.06;;;3.12;92.81
68793;BME280;55778;54.346;10.210;2022-12-08T11:37:51;100187.09;;;2.98;92.09
68793;BME280;55778;54.346;10.210;2022-12-08T11:40:28;100176.19;;;3.12;90.02
68793;BME280;55778;54.346;10.210;2022-12-08T11:43:15;100183.03;;;2.93;90.47
68793;BME280;55778;54.346;10.210;2022-12-08T11:45:41;100185.66;;;2.82;91.73
68793;BME280;55778;54.346;10.210;2022-12-08T11:50:42;100201.91;;;2.68;93.95
68793;BME280;55778;54.346;10.210;2022-12-08T11:53:23;100192.56;;;2.61;91.84
68793;BME280;55778;54.346;10.210;2022-12-08T11:56:05;100199.38;;;2.41;93.47
68793;BME280;55778;54.346;10.210;2022-12-08T11:58:41;100197.88;;;2.37;94.14
68793;BME280;55778;54.346;10.210;2022-12-08T12:01:23;100192.16;;;2.29;94.81
68793;BME280;55778;54.346;10.210;2022-12-08T12:09:26;100200.44;;;2.01;95.58
68793;BME280;55778;54.346;10.210;2022-12-08T12:12:26;100193.75;;;1.94;96.98
68793;BME280;55778;54.346;10.210;2022-12-08T12:17:59;100204.09;;;2.38;96.68
68793;BME280;55778;54.346;10.210;2022-12-08T12:20:41;100193.69;;;3.18;95.58
68793;BME280;55778;54.346;10.210;2022-12-08T12:23:25;100189.38;;;3.28;88.99
68793;BME280;55778;54.346;10.210;2022-12-08T12:26:06;100185.97;;;3.37;89.12
68793;BME280;55778;54.346;10.210;2022-12-08T12:28:42;100191.91;;;4.22;88.07
68793;BME280;55778;54.346;10.210;2022-12-08T12:31:11;100185.09;;;4.95;83.55
68793;BME280;55778;54.346;10.210;2022-12-08T12:33:40;100186.66;;;4.87;80.60
68793;BME280;55778;54.346;10.210;2022-12-08T12:36:07;100181.66;;;4.71;81.15
68793;BME280;55778;54.346;10.210;2022-12-08T12:38:42;100201.03;;;4.65;82.34
68793;BME280;55778;54.346;10.210;2022-12-08T12:44:07;100189.06;;;5.34;82.05
68793;BME280;55778;54.346;10.210;2022-12-08T12:57:35;100196.03;;;3.35;86.27
68793;BME280;55778;54.346;10.210;2022-12-08T13:05:25;100189.63;;;3.12;86.84
68793;BME280;55778;54.346;10.210;2022-12-08T13:07:54;100199.81;;;2.96;89.43
68793;BME280;55778;54.346;10.210;2022-12-08T13:10:44;100196.69;;;3.02;89.04
68793;BME280;55778;54.346;10.210;2022-12-08T13:18:17;100207.31;;;2.55;90.01
68793;BME280;55778;54.346;10.210;2022-12-08T13:20:50;100216.38;;;2.17;91.84
68793;BME280;55778;54.346;10.210;2022-12-08T13:31:42;100213.97;;;2.50;93.50
68793;BME280;55778;54.346;10.210;2022-12-08T13:36:46;100210.25;;;2.88;86.99
68793;BME280;55778;54.346;10.210;2022-12-08T13:39:20;100207.06;;;2.83;85.84
68793;BME280;55778;54.346;10.210;2022-12-08T13:42:02;100218.53;;;2.98;85.04
68793;BME280;55778;54.346;10.210;2022-12-08T13:44:44;100221.72;;;2.67;86.33
68793;BME280;55778;54.346;10.210;2022-12-08T13:47:14;100234.72;;;2.60;87.43
68793;BME280;55778;54.346;10.210;2022-12-08T13:49:41;100229.69;;;2.68;87.48
68793;BME280;55778;54.346;10.210;2022-12-08T13:52:15;100236.78;;;2.82;85.76
68793;BME280;55778;54.346;10.210;2022-12-08T13:54:43;100234.53;;;2.51;87.71
68793;BME280;55778;54.346;10.210;2022-12-08T13:57:22;100240.56;;;2.67;87.64
68793;BME280;55778;54.346;10.210;2022-12-08T13:59:49;100236.34;;;2.63;86.55
68793;BME280;55778;54.346;10.210;2022-12-08T14:02:19;100244.19;;;2.66;85.20
68793;BME280;55778;54.346;10.210;2022-12-08T14:04:49;100248.03;;;2.87;83.64
68793;BME280;55778;54.346;10.210;2022-12-08T14:07:14;100250.88;;;2.60;84.67
68793;BME280;55778;54.346;10.210;2022-12-08T14:09:40;100253.16;;;2.54;84.78
68793;BME280;55778;54.346;10.210;2022-12-08T14:14:40;100257.53;;;2.30;87.36
68793;BME280;55778;54.346;10.210;2022-12-08T14:17:11;100256.69;;;2.17;88.81
68793;BME280;55778;54.346;10.210;2022-12-08T14:19:37;100267.91;;;1.96;89.38
68793;BME280;55778;54.346;10.210;2022-12-08T14:22:14;100266.91;;;1.85;90.71
68793;BME280;55778;54.346;10.210;2022-12-08T14:24:47;100264.94;;;1.74;93.35
68793;BME280;55778;54.346;10.210;2022-12-08T14:27:15;100278.94;;;2.31;90.47